createdAt,value
2023-01-21T10:56:37.432Z,3.85
2023-01-21T10:59:13.637Z,4.70
2023-01-21T11:01:45.942Z,4.38
2023-01-21T11:57:21.872Z,3.20
2023-01-21T11:59:50.124Z,3.97
2023-01-21T12:02:19.457Z,3.33
2023-01-21T12:28:17.486Z,3.08
2023-01-21T12:30:59.010Z,3.10
2023-01-21T12:33:46.667Z,2.80
2023-01-21T12:36:26.984Z,2.92
2023-01-21T12:39:22.666Z,2.60
2023-01-21T12:42:01.875Z,2.73
2023-01-21T12:44:48.761Z,2.78
2023-01-21T12:47:32.961Z,2.42
2023-01-21T12:50:10.956Z,3.42
2023-01-21T12:53:04.281Z,2.92
2023-01-21T12:55:56.148Z,7.97
2023-01-21T12:58:28.987Z,6.70
2023-01-21T13:01:02.765Z,6.50
2023-01-21T13:03:42.026Z,6.15
2023-01-21T13:06:19.283Z,6.55
2023-01-21T13:08:55.507Z,6.00
2023-01-21T13:11:42.911Z,6.40
2023-01-21T13:14:10.130Z,6.15
2023-01-21T13:16:46.444Z,6.82
2023-01-21T13:19:15.278Z,6.35
2023-01-21T13:22:06.020Z,6.60
2023-01-21T13:25:01.356Z,7.68
2023-01-21T13:28:21.190Z,6.03
2023-01-21T13:31:06.408Z,6.43
2023-01-21T13:33:42.380Z,6.25
2023-01-21T13:36:12.375Z,6.53
2023-01-21T13:39:01.056Z,6.82
2023-01-21T13:41:40.621Z,6.10
2023-01-21T13:44:25.783Z,6.22
2023-01-21T13:47:26.998Z,5.63
2023-01-21T13:50:19.795Z,5.57
2023-01-21T13:52:55.060Z,5.28
2023-01-21T13:55:39.222Z,4.90
2023-01-21T13:58:15.131Z,4.85
2023-01-21T14:01:11.723Z,5.05
2023-01-21T14:03:56.028Z,4.82
2023-01-21T14:06:37.143Z,4.70
2023-01-21T14:09:11.326Z,4.00
2023-01-21T14:12:02.253Z,4.18
2023-01-21T14:15:03.127Z,4.38
2023-01-21T14:17:59.481Z,4.38
2023-01-21T14:21:03.455Z,4.50
2023-01-21T14:23:30.843Z,3.40
2023-01-21T14:26:08.400Z,4.30
2023-01-21T14:28:54.368Z,4.68
2023-01-21T14:31:32.150Z,4.32
2023-01-21T14:34:12.014Z,4.15
2023-01-21T14:37:11.265Z,3.85
2023-01-21T14:39:38.508Z,3.88
2023-01-21T14:42:10.889Z,3.70
2023-01-21T14:44:48.734Z,3.17
2023-01-21T14:47:24.605Z,3.75
2023-01-21T14:49:54.016Z,3.80
2023-01-21T14:52:43.624Z,3.40
2023-01-21T14:55:28.146Z,3.97
2023-01-21T14:57:57.054Z,3.92
2023-01-21T15:00:30.346Z,4.10
2023-01-21T15:03:15.330Z,3.50
2023-01-21T15:05:50.358Z,4.13
2023-01-21T15:08:46.261Z,3.70
2023-01-21T15:11:19.884Z,3.90
2023-01-21T15:14:02.426Z,3.53
2023-01-21T15:16:35.914Z,4.53
2023-01-21T15:19:08.985Z,4.22
2023-01-21T15:21:42.373Z,4.57
2023-01-21T15:24:22.931Z,3.83
2023-01-21T15:27:22.147Z,3.90
2023-01-21T15:29:58.850Z,3.80
2023-01-21T15:32:39.194Z,3.92
2023-01-21T15:35:25.150Z,4.15
2023-01-21T15:38:00.254Z,4.10
2023-01-21T15:40:39.073Z,3.53
2023-01-21T15:43:43.812Z,3.95
2023-01-21T15:46:20.769Z,3.55
2023-01-21T15:48:53.568Z,3.40
2023-01-21T15:51:52.826Z,5.32
2023-01-21T15:54:49.095Z,4.93
2023-01-21T15:57:40.834Z,4.38
2023-01-21T16:00:37.877Z,4.40
2023-01-21T16:03:19.611Z,4.40
2023-01-21T16:14:07.836Z,4.65
2023-01-21T16:16:50.473Z,4.10
2023-01-21T16:19:28.336Z,4.43
2023-01-21T16:22:01.268Z,3.97
2023-01-21T16:24:30.026Z,4.00
2023-01-21T16:27:17.395Z,4.30
2023-01-21T16:29:45.015Z,4.00
2023-01-21T16:32:19.863Z,4.22
2023-01-21T16:34:47.884Z,4.25
2023-01-21T16:37:25.990Z,3.47
2023-01-21T16:39:55.732Z,4.38
2023-01-21T16:42:40.890Z,3.80
2023-01-21T16:45:19.015Z,4.30
2023-01-21T16:47:53.655Z,3.83
2023-01-21T16:50:24.668Z,3.95
2023-01-21T16:52:54.379Z,3.97
2023-01-21T16:55:25.805Z,3.95
2023-01-21T16:57:57.358Z,4.85
2023-01-21T17:00:30.725Z,3.88
2023-01-21T17:02:59.824Z,3.80
2023-01-21T17:05:30.655Z,4.05
2023-01-21T17:08:02.215Z,3.90
2023-01-21T17:10:39.503Z,4.30
2023-01-21T17:13:15.896Z,3.88
2023-01-21T17:15:58.264Z,3.70
2023-01-21T17:18:31.819Z,3.83
2023-01-21T17:21:08.465Z,4.32
2023-01-21T17:23:53.517Z,3.92
